sensor_id;sensor_type;location;lat;lon;timestamp;P1;durP1;ratioP1;P2;durP2;ratioP2
5702;SDS011;2876;51.738;10.050;2023-09-19T00:00:00;1.83;;;1.43;;
5702;SDS011;2876;51.738;10.050;2023-09-19T00:06:02;3.50;;;1.20;;
5702;SDS011;2876;51.738;10.050;2023-09-19T00:12:09;1.53;;;1.40;;
5702;SDS011;2876;51.738;10.050;2023-09-19T00:18:11;5.97;;;1.70;;
5702;SDS011;2876;51.738;10.050;2023-09-19T00:24:16;3.33;;;1.20;;
5702;SDS011;2876;51.738;10.050;2023-09-19T00:30:19;1.50;;;1.40;;
5702;SDS011;2876;51.738;10.050;2023-09-19T00:36:25;1.67;;;1.10;;
5702;SDS011;2876;51.738;10.050;2023-09-19T00:42:27;4.80;;;1.30;;
5702;SDS011;2876;51.738;10.050;2023-09-19T00:48:29;2.63;;;1.40;;
5702;SDS011;2876;51.738;10.050;2023-09-19T00:54:31;1.50;;;1.40;;
5702;SDS011;2876;51.738;10.050;2023-09-19T01:00:35;4.13;;;1.50;;
5702;SDS011;2876;51.738;10.050;2023-09-19T01:06:40;2.60;;;1.20;;
5702;SDS011;2876;51.738;10.050;2023-09-19T01:19:33;2.10;;;1.73;;
5702;SDS011;2876;51.738;10.050;2023-09-19T01:32:50;15.93;;;1.53;;
5702;SDS011;2876;51.738;10.050;2023-09-19T01:38:53;1.63;;;1.47;;
5702;SDS011;2876;51.738;10.050;2023-09-19T01:45:03;4.00;;;1.57;;
5702;SDS011;2876;51.738;10.050;2023-09-19T01:51:18;5.90;;;1.60;;
5702;SDS011;2876;51.738;10.050;2023-09-19T01:57:44;3.17;;;1.80;;
5702;SDS011;2876;51.738;10.050;2023-09-19T02:04:05;2.27;;;1.63;;
5702;SDS011;2876;51.738;10.050;2023-09-19T02:10:09;4.83;;;1.83;;
5702;SDS011;2876;51.738;10.050;2023-09-19T02:16:16;2.60;;;1.77;;
5702;SDS011;2876;51.738;10.050;2023-09-19T02:22:18;3.70;;;2.07;;
5702;SDS011;2876;51.738;10.050;2023-09-19T02:28:20;6.53;;;1.93;;
5702;SDS011;2876;51.738;10.050;2023-09-19T02:34:25;3.50;;;1.87;;
5702;SDS011;2876;51.738;10.050;2023-09-19T02:40:28;7.80;;;2.50;;
5702;SDS011;2876;51.738;10.050;2023-09-19T02:46:37;3.37;;;1.77;;
5702;SDS011;2876;51.738;10.050;2023-09-19T02:52:41;2.80;;;2.07;;
5702;SDS011;2876;51.738;10.050;2023-09-19T02:58:51;2.57;;;1.90;;
5702;SDS011;2876;51.738;10.050;2023-09-19T03:04:54;2.20;;;2.00;;
5702;SDS011;2876;51.738;10.050;2023-09-19T03:10:57;5.40;;;2.23;;
5702;SDS011;2876;51.738;10.050;2023-09-19T03:17:02;4.40;;;2.20;;
5702;SDS011;2876;51.738;10.050;2023-09-19T03:23:07;3.93;;;2.57;;
5702;SDS011;2876;51.738;10.050;2023-09-19T03:29:17;5.97;;;2.60;;
5702;SDS011;2876;51.738;10.050;2023-09-19T03:35:19;2.30;;;2.10;;
5702;SDS011;2876;51.738;10.050;2023-09-19T03:41:21;2.50;;;2.30;;
5702;SDS011;2876;51.738;10.050;2023-09-19T03:47:23;3.70;;;2.50;;
5702;SDS011;2876;51.738;10.050;2023-09-19T03:53:25;2.97;;;2.60;;
5702;SDS011;2876;51.738;10.050;2023-09-19T03:59:27;4.97;;;2.70;;
5702;SDS011;2876;51.738;10.050;2023-09-19T04:05:30;6.10;;;2.90;;
5702;SDS011;2876;51.738;10.050;2023-09-19T04:11:35;14.30;;;4.10;;
5702;SDS011;2876;51.738;10.050;2023-09-19T04:17:38;3.43;;;2.57;;
5702;SDS011;2876;51.738;10.050;2023-09-19T04:23:40;2.87;;;2.60;;
5702;SDS011;2876;51.738;10.050;2023-09-19T04:29:42;4.83;;;3.10;;
5702;SDS011;2876;51.738;10.050;2023-09-19T04:35:44;3.50;;;3.07;;
5702;SDS011;2876;51.738;10.050;2023-09-19T04:41:46;3.30;;;2.80;;
5702;SDS011;2876;51.738;10.050;2023-09-19T04:47:49;6.13;;;2.97;;
5702;SDS011;2876;51.738;10.050;2023-09-19T04:53:51;4.07;;;3.20;;
5702;SDS011;2876;51.738;10.050;2023-09-19T04:59:53;6.00;;;3.23;;
5702;SDS011;2876;51.738;10.050;2023-09-19T05:05:55;4.67;;;2.47;;
5702;SDS011;2876;51.738;10.050;2023-09-19T05:11:57;10.27;;;3.00;;
5702;SDS011;2876;51.738;10.050;2023-09-19T05:17:59;5.27;;;2.87;;
5702;SDS011;2876;51.738;10.050;2023-09-19T05:24:01;9.03;;;3.00;;
5702;SDS011;2876;51.738;10.050;2023-09-19T05:30:05;8.20;;;3.40;;
5702;SDS011;2876;51.738;10.050;2023-09-19T05:36:10;6.00;;;2.83;;
5702;SDS011;2876;51.738;10.050;2023-09-19T05:42:13;5.70;;;2.97;;
5702;SDS011;2876;51.738;10.050;2023-09-19T05:48:15;5.60;;;2.87;;
5702;SDS011;2876;51.738;10.050;2023-09-19T05:54:18;5.00;;;3.60;;
5702;SDS011;2876;51.738;10.050;2023-09-19T06:00:21;8.53;;;3.10;;
5702;SDS011;2876;51.738;10.050;2023-09-19T06:06:26;4.47;;;2.83;;
5702;SDS011;2876;51.738;10.050;2023-09-19T06:12:29;11.63;;;3.10;;
5702;SDS011;2876;51.738;10.050;2023-09-19T06:18:38;4.13;;;2.70;;
5702;SDS011;2876;51.738;10.050;2023-09-19T06:24:40;9.23;;;3.10;;
5702;SDS011;2876;51.738;10.050;2023-09-19T06:30:45;5.57;;;2.40;;
5702;SDS011;2876;51.738;10.050;2023-09-19T06:36:51;6.80;;;2.70;;
5702;SDS011;2876;51.738;10.050;2023-09-19T06:42:53;10.33;;;3.00;;
5702;SDS011;2876;51.738;10.050;2023-09-19T06:48:57;3.70;;;2.40;;
5702;SDS011;2876;51.738;10.050;2023-09-19T06:54:59;9.33;;;2.63;;
5702;SDS011;2876;51.738;10.050;2023-09-19T07:01:01;12.17;;;2.87;;
5702;SDS011;2876;51.738;10.050;2023-09-19T07:07:04;6.20;;;2.60;;
5702;SDS011;2876;51.738;10.050;2023-09-19T07:13:06;3.97;;;2.67;;
5702;SDS011;2876;51.738;10.050;2023-09-19T07:19:12;6.47;;;2.70;;
5702;SDS011;2876;51.738;10.050;2023-09-19T07:25:16;6.80;;;2.30;;
5702;SDS011;2876;51.738;10.050;2023-09-19T07:31:19;5.53;;;3.17;;
5702;SDS011;2876;51.738;10.050;2023-09-19T07:37:21;6.00;;;2.67;;
5702;SDS011;2876;51.738;10.050;2023-09-19T07:43:28;3.60;;;2.63;;
5702;SDS011;2876;51.738;10.050;2023-09-19T07:49:30;5.93;;;3.10;;
5702;SDS011;2876;51.738;10.050;2023-09-19T07:55:32;7.20;;;2.73;;
5702;SDS011;2876;51.738;10.050;2023-09-19T08:01:35;7.70;;;2.83;;
5702;SDS011;2876;51.738;10.050;2023-09-19T08:07:39;7.10;;;2.80;;
5702;SDS011;2876;51.738;10.050;2023-09-19T08:13:48;6.13;;;2.47;;
5702;SDS011;2876;51.738;10.050;2023-09-19T08:19:50;3.20;;;2.40;;
5702;SDS011;2876;51.738;10.050;2023-09-19T08:25:57;4.60;;;2.30;;
5702;SDS011;2876;51.738;10.050;2023-09-19T08:32:01;4.33;;;2.60;;
5702;SDS011;2876;51.738;10.050;2023-09-19T08:38:04;4.77;;;2.27;;
5702;SDS011;2876;51.738;10.050;2023-09-19T08:44:09;5.83;;;2.30;;
5702;SDS011;2876;51.738;10.050;2023-09-19T08:50:14;3.90;;;2.60;;
5702;SDS011;2876;51.738;10.050;2023-09-19T08:56:26;7.57;;;2.97;;
5702;SDS011;2876;51.738;10.050;2023-09-19T09:02:31;5.30;;;2.17;;
5702;SDS011;2876;51.738;10.050;2023-09-19T09:08:35;6.87;;;2.73;;
5702;SDS011;2876;51.738;10.050;2023-09-19T09:14:37;7.90;;;2.50;;
5702;SDS011;2876;51.738;10.050;2023-09-19T09:20:39;4.83;;;2.37;;
5702;SDS011;2876;51.738;10.050;2023-09-19T09:26:42;6.03;;;3.13;;
5702;SDS011;2876;51.738;10.050;2023-09-19T09:32:44;9.60;;;2.17;;
5702;SDS011;2876;51.738;10.050;2023-09-19T09:39:06;5.87;;;2.30;;
5702;SDS011;2876;51.738;10.050;2023-09-19T09:45:20;10.20;;;3.23;;
5702;SDS011;2876;51.738;10.050;2023-09-19T09:51:39;14.03;;;2.80;;
5702;SDS011;2876;51.738;10.050;2023-09-19T09:57:45;8.07;;;2.80;;
5702;SDS011;2876;51.738;10.050;2023-09-19T10:03:47;6.40;;;2.60;;
5702;SDS011;2876;51.738;10.050;2023-09-19T10:09:49;8.20;;;3.90;;
5702;SDS011;2876;51.738;10.050;2023-09-19T10:15:54;6.10;;;2.30;;
5702;SDS011;2876;51.738;10.050;2023-09-19T10:21:58;11.27;;;2.50;;
5702;SDS011;2876;51.738;10.050;2023-09-19T10:28:03;9.67;;;2.90;;
5702;SDS011;2876;51.738;10.050;2023-09-19T10:34:17;6.87;;;2.10;;
5702;SDS011;2876;51.738;10.050;2023-09-19T10:40:20;6.03;;;2.37;;
5702;SDS011;2876;51.738;10.050;2023-09-19T10:46:27;7.50;;;2.97;;
5702;SDS011;2876;51.738;10.050;2023-09-19T10:52:30;8.60;;;3.33;;
5702;SDS011;2876;51.738;10.050;2023-09-19T10:58:35;8.00;;;2.80;;
5702;SDS011;2876;51.738;10.050;2023-09-19T11:04:41;4.27;;;2.30;;
5702;SDS011;2876;51.738;10.050;2023-09-19T11:10:44;8.13;;;2.33;;
5702;SDS011;2876;51.738;10.050;2023-09-19T11:29:27;6.57;;;2.37;;
5702;SDS011;2876;51.738;10.050;2023-09-19T11:36:14;8.80;;;2.60;;
5702;SDS011;2876;51.738;10.050;2023-09-19T11:42:45;6.40;;;2.53;;
5702;SDS011;2876;51.738;10.050;2023-09-19T11:48:55;6.80;;;2.63;;
5702;SDS011;2876;51.738;10.050;2023-09-19T11:55:14;4.20;;;2.20;;
5702;SDS011;2876;51.738;10.050;2023-09-19T12:01:21;9.87;;;2.40;;
5702;SDS011;2876;51.738;10.050;2023-09-19T12:07:26;7.30;;;2.37;;
5702;SDS011;2876;51.738;10.050;2023-09-19T12:13:28;9.53;;;2.60;;
5702;SDS011;2876;51.738;10.050;2023-09-19T12:19:32;6.23;;;2.53;;
5702;SDS011;2876;51.738;10.050;2023-09-19T12:25:44;5.70;;;2.80;;
5702;SDS011;2876;51.738;10.050;2023-09-19T12:31:52;7.77;;;3.27;;
5702;SDS011;2876;51.738;10.050;2023-09-19T12:37:58;2.77;;;2.07;;
5702;SDS011;2876;51.738;10.050;2023-09-19T12:44:00;8.90;;;2.90;;
5702;SDS011;2876;51.738;10.050;2023-09-19T12:50:13;10.13;;;2.73;;
5702;SDS011;2876;51.738;10.050;2023-09-19T12:56:20;6.80;;;2.70;;
5702;SDS011;2876;51.738;10.050;2023-09-19T13:02:24;6.37;;;2.87;;
5702;SDS011;2876;51.738;10.050;2023-09-19T13:08:27;4.80;;;2.30;;
5702;SDS011;2876;51.738;10.050;2023-09-19T13:14:39;3.20;;;2.40;;
5702;SDS011;2876;51.738;10.050;2023-09-19T13:21:05;6.63;;;3.23;;
5702;SDS011;2876;51.738;10.050;2023-09-19T13:27:23;3.83;;;2.00;;
5702;SDS011;2876;51.738;10.050;2023-09-19T13:33:25;10.10;;;2.40;;
5702;SDS011;2876;51.738;10.050;2023-09-19T13:39:27;5.80;;;2.63;;
5702;SDS011;2876;51.738;10.050;2023-09-19T13:45:29;4.27;;;2.20;;
5702;SDS011;2876;51.738;10.050;2023-09-19T13:51:32;3.37;;;2.30;;
5702;SDS011;2876;51.738;10.050;2023-09-19T13:57:34;7.20;;;3.27;;
5702;SDS011;2876;51.738;10.050;2023-09-19T14:03:36;5.50;;;2.70;;
5702;SDS011;2876;51.738;10.050;2023-09-19T14:09:38;5.43;;;2.90;;
5702;SDS011;2876;51.738;10.050;2023-09-19T14:15:40;4.50;;;1.87;;
5702;SDS011;2876;51.738;10.050;2023-09-19T14:21:43;5.90;;;2.30;;
5702;SDS011;2876;51.738;10.050;2023-09-19T14:27:46;3.73;;;1.93;;
5702;SDS011;2876;51.738;10.050;2023-09-19T14:33:55;5.53;;;2.10;;
5702;SDS011;2876;51.738;10.050;2023-09-19T14:40:00;7.07;;;1.93;;
5702;SDS011;2876;51.738;10.050;2023-09-19T14:46:08;2.40;;;1.87;;
5702;SDS011;2876;51.738;10.050;2023-09-19T14:52:11;4.87;;;2.10;;
5702;SDS011;2876;51.738;10.050;2023-09-19T14:58:17;4.57;;;2.40;;
5702;SDS011;2876;51.738;10.050;2023-09-19T15:04:19;6.30;;;2.00;;
5702;SDS011;2876;51.738;10.050;2023-09-19T15:10:22;2.33;;;1.60;;
5702;SDS011;2876;51.738;10.050;2023-09-19T15:16:24;4.20;;;1.87;;
5702;SDS011;2876;51.738;10.050;2023-09-19T15:22:26;6.23;;;2.57;;
5702;SDS011;2876;51.738;10.050;2023-09-19T15:28:29;3.67;;;2.40;;
5702;SDS011;2876;51.738;10.050;2023-09-19T15:34:33;8.40;;;2.67;;
5702;SDS011;2876;51.738;10.050;2023-09-19T15:40:35;4.27;;;2.30;;
5702;SDS011;2876;51.738;10.050;2023-09-19T15:46:37;6.73;;;2.57;;
5702;SDS011;2876;51.738;10.050;2023-09-19T15:52:39;5.77;;;2.37;;
5702;SDS011;2876;51.738;10.050;2023-09-19T15:58:45;8.50;;;2.60;;
5702;SDS011;2876;51.738;10.050;2023-09-19T16:04:48;9.80;;;2.30;;
5702;SDS011;2876;51.738;10.050;2023-09-19T16:10:50;4.50;;;2.10;;
5702;SDS011;2876;51.738;10.050;2023-09-19T16:16:53;3.53;;;2.10;;
5702;SDS011;2876;51.738;10.050;2023-09-19T16:22:55;5.30;;;2.67;;
5702;SDS011;2876;51.738;10.050;2023-09-19T16:28:58;6.37;;;2.53;;
5702;SDS011;2876;51.738;10.050;2023-09-19T16:35:03;7.17;;;2.40;;
5702;SDS011;2876;51.738;10.050;2023-09-19T16:41:06;7.50;;;2.80;;
5702;SDS011;2876;51.738;10.050;2023-09-19T16:47:13;4.50;;;2.63;;
5702;SDS011;2876;51.738;10.050;2023-09-19T16:53:15;4.80;;;2.23;;
5702;SDS011;2876;51.738;10.050;2023-09-19T16:59:20;6.83;;;3.37;;
5702;SDS011;2876;51.738;10.050;2023-09-19T17:05:25;9.10;;;2.60;;
5702;SDS011;2876;51.738;10.050;2023-09-19T17:11:28;4.60;;;2.67;;
5702;SDS011;2876;51.738;10.050;2023-09-19T17:17:30;5.33;;;2.90;;
5702;SDS011;2876;51.738;10.050;2023-09-19T17:23:33;8.63;;;2.27;;
5702;SDS011;2876;51.738;10.050;2023-09-19T17:29:35;6.17;;;2.60;;
5702;SDS011;2876;51.738;10.050;2023-09-19T17:35:37;6.67;;;2.47;;
5702;SDS011;2876;51.738;10.050;2023-09-19T17:41:39;5.67;;;2.13;;
5702;SDS011;2876;51.738;10.050;2023-09-19T17:47:42;3.63;;;2.10;;
5702;SDS011;2876;51.738;10.050;2023-09-19T17:53:45;5.67;;;3.27;;
5702;SDS011;2876;51.738;10.050;2023-09-19T17:59:48;5.57;;;2.43;;
5702;SDS011;2876;51.738;10.050;2023-09-19T18:05:53;7.30;;;2.50;;
5702;SDS011;2876;51.738;10.050;2023-09-19T18:11:55;9.77;;;3.50;;
5702;SDS011;2876;51.738;10.050;2023-09-19T18:17:58;10.13;;;3.73;;
5702;SDS011;2876;51.738;10.050;2023-09-19T18:24:00;7.13;;;2.77;;
5702;SDS011;2876;51.738;10.050;2023-09-19T18:30:05;6.03;;;2.17;;
5702;SDS011;2876;51.738;10.050;2023-09-19T18:36:09;5.77;;;2.40;;
5702;SDS011;2876;51.738;10.050;2023-09-19T18:42:11;6.50;;;1.97;;
5702;SDS011;2876;51.738;10.050;2023-09-19T18:48:13;4.00;;;2.00;;
5702;SDS011;2876;51.738;10.050;2023-09-19T18:54:17;3.23;;;1.73;;
5702;SDS011;2876;51.738;10.050;2023-09-19T19:00:19;9.73;;;2.07;;
5702;SDS011;2876;51.738;10.050;2023-09-19T19:06:26;4.60;;;2.00;;
5702;SDS011;2876;51.738;10.050;2023-09-19T19:12:30;3.57;;;1.90;;
5702;SDS011;2876;51.738;10.050;2023-09-19T19:18:36;3.03;;;1.87;;
5702;SDS011;2876;51.738;10.050;2023-09-19T19:24:40;6.03;;;1.80;;
5702;SDS011;2876;51.738;10.050;2023-09-19T19:30:45;4.43;;;1.80;;
5702;SDS011;2876;51.738;10.050;2023-09-19T19:36:48;3.67;;;1.90;;
5702;SDS011;2876;51.738;10.050;2023-09-19T19:42:50;4.30;;;2.13;;
5702;SDS011;2876;51.738;10.050;2023-09-19T19:48:52;9.63;;;2.53;;
5702;SDS011;2876;51.738;10.050;2023-09-19T19:54:57;3.27;;;1.80;;
5702;SDS011;2876;51.738;10.050;2023-09-19T20:01:02;4.10;;;1.83;;
5702;SDS011;2876;51.738;10.050;2023-09-19T20:07:10;6.17;;;1.97;;
5702;SDS011;2876;51.738;10.050;2023-09-19T20:13:12;9.47;;;2.23;;
5702;SDS011;2876;51.738;10.050;2023-09-19T20:19:15;4.43;;;1.73;;
5702;SDS011;2876;51.738;10.050;2023-09-19T20:25:17;4.10;;;1.77;;
5702;SDS011;2876;51.738;10.050;2023-09-19T20:31:21;4.50;;;1.50;;
5702;SDS011;2876;51.738;10.050;2023-09-19T20:37:24;3.77;;;1.90;;
5702;SDS011;2876;51.738;10.050;2023-09-19T20:43:27;2.07;;;1.50;;
5702;SDS011;2876;51.738;10.050;2023-09-19T20:49:33;2.90;;;1.73;;
5702;SDS011;2876;51.738;10.050;2023-09-19T20:55:38;3.43;;;1.60;;
5702;SDS011;2876;51.738;10.050;2023-09-19T21:01:41;4.67;;;1.87;;
5702;SDS011;2876;51.738;10.050;2023-09-19T21:07:43;2.97;;;1.87;;
5702;SDS011;2876;51.738;10.050;2023-09-19T21:13:46;2.93;;;2.10;;
5702;SDS011;2876;51.738;10.050;2023-09-19T21:19:50;2.93;;;1.57;;
5702;SDS011;2876;51.738;10.050;2023-09-19T21:25:55;4.23;;;1.80;;
5702;SDS011;2876;51.738;10.050;2023-09-19T21:31:57;2.97;;;1.73;;
5702;SDS011;2876;51.738;10.050;2023-09-19T21:37:59;3.50;;;2.27;;
5702;SDS011;2876;51.738;10.050;2023-09-19T21:44:01;3.53;;;1.67;;
5702;SDS011;2876;51.738;10.050;2023-09-19T21:50:04;5.40;;;1.80;;
5702;SDS011;2876;51.738;10.050;2023-09-19T21:56:08;4.67;;;1.70;;
5702;SDS011;2876;51.738;10.050;2023-09-19T22:02:10;3.03;;;1.30;;
5702;SDS011;2876;51.738;10.050;2023-09-19T22:08:12;1.97;;;1.60;;
5702;SDS011;2876;51.738;10.050;2023-09-19T22:14:14;2.07;;;1.43;;
5702;SDS011;2876;51.738;10.050;2023-09-19T22:20:17;5.53;;;1.93;;
5702;SDS011;2876;51.738;10.050;2023-09-19T22:26:30;4.53;;;1.60;;
5702;SDS011;2876;51.738;10.050;2023-09-19T22:32:33;4.67;;;1.80;;
5702;SDS011;2876;51.738;10.050;2023-09-19T22:38:36;4.40;;;1.70;;
5702;SDS011;2876;51.738;10.050;2023-09-19T22:44:39;1.97;;;1.50;;
5702;SDS011;2876;51.738;10.050;2023-09-19T22:50:41;8.90;;;1.67;;
5702;SDS011;2876;51.738;10.050;2023-09-19T22:56:48;3.53;;;1.67;;
5702;SDS011;2876;51.738;10.050;2023-09-19T23:02:53;5.47;;;1.87;;
5702;SDS011;2876;51.738;10.050;2023-09-19T23:08:56;3.03;;;1.70;;
5702;SDS011;2876;51.738;10.050;2023-09-19T23:15:01;6.33;;;1.80;;
5702;SDS011;2876;51.738;10.050;2023-09-19T23:21:12;5.93;;;1.60;;
5702;SDS011;2876;51.738;10.050;2023-09-19T23:27:20;4.63;;;1.53;;
5702;SDS011;2876;51.738;10.050;2023-09-19T23:33:34;3.53;;;1.60;;
5702;SDS011;2876;51.738;10.050;2023-09-19T23:39:37;3.60;;;1.43;;
5702;SDS011;2876;51.738;10.050;2023-09-19T23:45:42;3.50;;;1.70;;
5702;SDS011;2876;51.738;10.050;2023-09-19T23:51:45;4.20;;;1.83;;
5702;SDS011;2876;51.738;10.050;2023-09-19T23:57:49;3.00;;;1.50;;
